Time;durP1;ratioP1;P1;durP2;ratioP2;P2;SDS_P1;SDS_P2;PMS_P1;PMS_P2;Temp;Humidity;BMP_temperature;BMP_pressure;BME280_temperature;BME280_humidity;BME280_pressure;Samples;Min_cycle;Max_cycle;Signal;HPM_P1;HPM_P2
2021/07/10 00:00:14;;;;;;;5.10;1.52;;;;;;;;;;5030215;28;20017;-39
2021/07/10 00:02:40;;;;;;;5.63;1.73;;;;;;;;;;5028224;28;20124;-40
2021/07/10 00:05:06;;;;;;;2.15;1.48;;;;;;;;;;5036048;28;20199;-41
2021/07/10 00:07:32;;;;;;;5.53;2.33;;;;;;;;;;5032802;28;20076;-40
2021/07/10 00:09:58;;;;;;;3.03;2.13;;;;;;;;;;5032465;28;20040;-40
2021/07/10 00:12:23;;;;;;;3.42;1.77;;;;;;;;;;5036860;28;20025;-39
2021/07/10 00:14:48;;;;;;;3.67;1.02;;;;;;;;;;5036405;28;20381;-39
2021/07/10 00:17:14;;;;;;;8.45;1.23;;;;;;;;;;5034739;28;20017;-40
2021/07/10 00:19:39;;;;;;;3.20;1.83;;;;;;;;;;5033849;28;20032;-42
2021/07/10 00:22:04;;;;;;;3.55;1.67;;;;;;;;;;5033070;28;20024;-39
2021/07/10 00:24:31;;;;;;;7.88;1.92;;;;;;;;;;5035871;28;20742;-40
2021/07/10 00:26:57;;;;;;;3.13;2.30;;;;;;;;;;5026363;28;20400;-39
2021/07/10 00:29:23;;;;;;;4.97;1.80;;;;;;;;;;5030065;28;20037;-39
2021/07/10 00:31:48;;;;;;;6.65;1.92;;;;;;;;;;5034757;28;20633;-44
2021/07/10 00:34:13;;;;;;;5.85;2.05;;;;;;;;;;5031192;28;20032;-41
2021/07/10 00:36:38;;;;;;;7.22;1.48;;;;;;;;;;5035051;28;20029;-43
2021/07/10 00:39:04;;;;;;;6.00;1.83;;;;;;;;;;5035747;28;20028;-42
2021/07/10 00:41:29;;;;;;;2.58;1.63;;;;;;;;;;5035617;28;20033;-39
2021/07/10 00:43:55;;;;;;;2.85;1.17;;;;;;;;;;5034270;28;20029;-41
2021/07/10 00:46:20;;;;;;;4.03;2.92;;;;;;;;;;5026296;28;20026;-39
2021/07/10 00:48:46;;;;;;;7.38;2.42;;;;;;;;;;5029941;28;20021;-40
2021/07/10 00:51:11;;;;;;;9.18;2.92;;;;;;;;;;5034385;28;20044;-40
2021/07/10 00:53:37;;;;;;;4.82;1.80;;;;;;;;;;5033246;28;20472;-40
2021/07/10 00:56:03;;;;;;;8.63;2.28;;;;;;;;;;5030862;28;20079;-41
2021/07/10 00:58:28;;;;;;;5.43;2.28;;;;;;;;;;5048117;28;20568;-40
2021/07/10 01:00:54;;;;;;;4.20;1.85;;;;;;;;;;5035717;28;20017;-40
2021/07/10 01:03:19;;;;;;;3.95;1.75;;;;;;;;;;5030742;28;20463;-40
2021/07/10 01:05:44;;;;;;;4.25;2.42;;;;;;;;;;5030001;28;20022;-43
2021/07/10 01:08:10;;;;;;;2.10;1.63;;;;;;;;;;5033276;28;20057;-41
2021/07/10 01:10:35;;;;;;;4.38;2.47;;;;;;;;;;5029110;28;20029;-40
2021/07/10 01:13:01;;;;;;;4.20;2.22;;;;;;;;;;5035030;28;20026;-40
2021/07/10 01:15:26;;;;;;;2.97;1.65;;;;;;;;;;5031102;28;20480;-41
2021/07/10 01:17:54;;;;;;;7.55;1.98;;;;;;;;;;5025155;28;20437;-41
2021/07/10 01:20:20;;;;;;;2.60;1.45;;;;;;;;;;5034352;28;20028;-40
2021/07/10 01:22:46;;;;;;;4.90;2.90;;;;;;;;;;5035223;28;20063;-40
2021/07/10 01:25:13;;;;;;;2.63;1.90;;;;;;;;;;5034925;28;20074;-42
2021/07/10 01:27:38;;;;;;;4.97;1.80;;;;;;;;;;5037500;28;20022;-40
2021/07/10 01:30:08;;;;;;;9.30;2.55;;;;;;;;;;5037592;28;20033;-39
2021/07/10 01:32:33;;;;;;;2.22;1.92;;;;;;;;;;5032028;28;20025;-39
2021/07/10 01:34:58;;;;;;;2.72;2.05;;;;;;;;;;5039256;28;20024;-40
2021/07/10 01:37:24;;;;;;;4.55;2.67;;;;;;;;;;5034340;28;20060;-40
2021/07/10 01:39:49;;;;;;;3.17;1.95;;;;;;;;;;5033912;28;20055;-40
2021/07/10 01:42:14;;;;;;;6.13;1.95;;;;;;;;;;5037512;28;20024;-41
2021/07/10 01:44:40;;;;;;;3.50;1.92;;;;;;;;;;5038171;28;20511;-42
2021/07/10 01:47:05;;;;;;;6.53;2.90;;;;;;;;;;5031854;28;20477;-40
2021/07/10 01:49:31;;;;;;;3.22;2.15;;;;;;;;;;5036270;28;20013;-42
2021/07/10 01:51:56;;;;;;;4.32;2.90;;;;;;;;;;5038673;28;20393;-42
2021/07/10 01:54:22;;;;;;;5.28;3.03;;;;;;;;;;5036107;28;20038;-41
2021/07/10 01:56:47;;;;;;;3.15;2.15;;;;;;;;;;5034427;28;20093;-41
2021/07/10 01:59:13;;;;;;;3.08;2.20;;;;;;;;;;5036466;28;20551;-41
2021/07/10 02:01:38;;;;;;;5.03;2.10;;;;;;;;;;5037250;28;20013;-40
2021/07/10 02:04:07;;;;;;;7.95;4.07;;;;;;;;;;5031226;28;20025;-40
2021/07/10 02:06:33;;;;;;;3.70;2.25;;;;;;;;;;5040626;28;20095;-40
2021/07/10 02:08:58;;;;;;;6.63;2.10;;;;;;;;;;5028347;28;20714;-42
2021/07/10 02:11:23;;;;;;;7.43;2.00;;;;;;;;;;5031031;28;20108;-41
2021/07/10 02:13:49;;;;;;;4.18;1.67;;;;;;;;;;5034452;28;20536;-40
2021/07/10 02:16:14;;;;;;;2.40;1.63;;;;;;;;;;5039079;28;20087;-39
2021/07/10 02:18:40;;;;;;;3.25;1.83;;;;;;;;;;5039953;28;20025;-41
2021/07/10 02:21:05;;;;;;;5.03;2.33;;;;;;;;;;5035979;28;20053;-41
2021/07/10 02:23:31;;;;;;;4.82;2.05;;;;;;;;;;5035006;28;20029;-40
2021/07/10 02:25:56;;;;;;;4.28;2.53;;;;;;;;;;5036925;28;20517;-40
2021/07/10 02:28:21;;;;;;;3.13;1.80;;;;;;;;;;5035067;28;20384;-40
2021/07/10 02:30:47;;;;;;;4.10;1.77;;;;;;;;;;5033806;28;20028;-40
2021/07/10 02:33:12;;;;;;;4.85;2.20;;;;;;;;;;5037747;28;20035;-43
2021/07/10 02:35:38;;;;;;;2.58;1.70;;;;;;;;;;5035577;28;20024;-41
2021/07/10 02:38:04;;;;;;;3.40;2.50;;;;;;;;;;5035293;28;20013;-40
2021/07/10 02:40:29;;;;;;;4.13;2.45;;;;;;;;;;5033594;28;20017;-40
2021/07/10 02:42:55;;;;;;;9.35;2.13;;;;;;;;;;5028963;28;20080;-40
2021/07/10 02:45:21;;;;;;;5.72;1.70;;;;;;;;;;5029672;28;20025;-40
2021/07/10 02:47:47;;;;;;;16.95;1.95;;;;;;;;;;5036080;28;20026;-40
2021/07/10 02:50:14;;;;;;;2.40;2.20;;;;;;;;;;5038089;28;20029;-41
2021/07/10 02:52:39;;;;;;;3.63;1.70;;;;;;;;;;5032051;28;20120;-40
2021/07/10 02:55:05;;;;;;;4.53;2.42;;;;;;;;;;5033500;28;20479;-41
2021/07/10 02:57:31;;;;;;;8.18;1.70;;;;;;;;;;5034305;28;20104;-40
2021/07/10 02:59:56;;;;;;;1.88;1.50;;;;;;;;;;5035149;28;20096;-41
2021/07/10 03:02:21;;;;;;;2.50;1.75;;;;;;;;;;5035277;28;20413;-40
2021/07/10 03:04:47;;;;;;;4.93;2.35;;;;;;;;;;5034029;28;20485;-41
2021/07/10 03:07:12;;;;;;;3.65;1.63;;;;;;;;;;5029227;28;20121;-41
2021/07/10 03:09:37;;;;;;;4.35;1.88;;;;;;;;;;5035137;28;20025;-40
2021/07/10 03:12:04;;;;;;;3.92;2.72;;;;;;;;;;5031896;28;20096;-40
2021/07/10 03:14:29;;;;;;;3.63;1.95;;;;;;;;;;5029405;28;20082;-39
2021/07/10 03:16:54;;;;;;;7.00;3.03;;;;;;;;;;5032319;28;20022;-39
2021/07/10 03:19:20;;;;;;;2.13;1.63;;;;;;;;;;5035811;28;20025;-40
2021/07/10 03:21:45;;;;;;;3.97;2.42;;;;;;;;;;5036700;28;20021;-40
2021/07/10 03:24:10;;;;;;;6.75;2.55;;;;;;;;;;5036623;28;20060;-40
2021/07/10 03:26:36;;;;;;;3.30;1.95;;;;;;;;;;5034197;28;20025;-39
2021/07/10 03:29:01;;;;;;;5.32;2.35;;;;;;;;;;5033571;28;20404;-41
2021/07/10 03:31:26;;;;;;;6.60;2.40;;;;;;;;;;5033981;28;20028;-40
2021/07/10 03:33:52;;;;;;;2.85;1.70;;;;;;;;;;5033740;28;20033;-39
2021/07/10 03:36:17;;;;;;;4.10;2.03;;;;;;;;;;5033935;28;20028;-40
2021/07/10 03:38:44;;;;;;;2.92;1.75;;;;;;;;;;5036262;28;20032;-39
2021/07/10 03:41:14;;;;;;;5.22;2.65;;;;;;;;;;5031043;28;20028;-41
2021/07/10 03:43:40;;;;;;;4.50;1.73;;;;;;;;;;5036282;28;20029;-41
2021/07/10 03:46:05;;;;;;;4.30;2.15;;;;;;;;;;5036890;28;20627;-41
2021/07/10 03:48:30;;;;;;;4.93;2.13;;;;;;;;;;5032645;28;20051;-39
2021/07/10 03:50:56;;;;;;;3.28;1.58;;;;;;;;;;5035194;28;20498;-39
2021/07/10 03:53:21;;;;;;;3.28;2.20;;;;;;;;;;5033026;28;20656;-40
2021/07/10 03:55:48;;;;;;;1.42;0.90;;;;;;;;;;5036482;28;20028;-39
2021/07/10 03:58:14;;;;;;;2.20;1.70;;;;;;;;;;5034900;28;20120;-40
2021/07/10 04:00:39;;;;;;;4.88;1.88;;;;;;;;;;5031869;28;20232;-39
2021/07/10 04:03:05;;;;;;;7.65;1.63;;;;;;;;;;5032655;28;20108;-40
2021/07/10 04:05:30;;;;;;;3.38;2.10;;;;;;;;;;5035002;28;20017;-40
2021/07/10 04:07:56;;;;;;;3.38;2.13;;;;;;;;;;5030455;28;20184;-40
2021/07/10 04:10:21;;;;;;;5.82;2.05;;;;;;;;;;5033214;28;20028;-39
2021/07/10 04:12:47;;;;;;;1.50;1.25;;;;;;;;;;5032411;28;20503;-43
2021/07/10 04:15:13;;;;;;;4.72;2.15;;;;;;;;;;5034879;28;20480;-41
2021/07/10 04:17:39;;;;;;;9.30;2.58;;;;;;;;;;5030925;28;20432;-40
2021/07/10 04:20:05;;;;;;;5.60;2.53;;;;;;;;;;5027939;28;20528;-40
2021/07/10 04:22:30;;;;;;;14.52;3.03;;;;;;;;;;5031353;28;20021;-39
2021/07/10 04:24:56;;;;;;;3.17;2.10;;;;;;;;;;5037397;28;20028;-40
2021/07/10 04:27:21;;;;;;;11.20;1.95;;;;;;;;;;5035802;28;20017;-40
2021/07/10 04:29:48;;;;;;;3.25;1.85;;;;;;;;;;5036863;28;20027;-41
2021/07/10 04:32:14;;;;;;;3.58;2.30;;;;;;;;;;5032496;28;20018;-39
2021/07/10 04:34:39;;;;;;;4.72;1.48;;;;;;;;;;5034824;28;20083;-41
2021/07/10 04:37:05;;;;;;;2.67;2.22;;;;;;;;;;5035198;28;20024;-40
2021/07/10 04:39:30;;;;;;;3.58;2.03;;;;;;;;;;5030493;28;20030;-39
2021/07/10 04:41:55;;;;;;;4.47;1.60;;;;;;;;;;5027615;28;20032;-39
2021/07/10 04:44:21;;;;;;;8.23;2.78;;;;;;;;;;5033035;28;20108;-40
2021/07/10 04:46:46;;;;;;;1.63;1.33;;;;;;;;;;5033244;28;20021;-39
2021/07/10 04:49:11;;;;;;;22.45;2.70;;;;;;;;;;5029730;28;20025;-41
2021/07/10 04:51:37;;;;;;;3.67;2.92;;;;;;;;;;5030556;28;20495;-40
2021/07/10 04:54:02;;;;;;;2.13;1.30;;;;;;;;;;5035568;28;20029;-39
2021/07/10 04:56:27;;;;;;;3.53;2.45;;;;;;;;;;5035088;28;20018;-41
2021/07/10 04:58:52;;;;;;;5.47;3.05;;;;;;;;;;5037025;28;20435;-40
2021/07/10 05:01:18;;;;;;;4.88;2.63;;;;;;;;;;5034855;28;20022;-39
2021/07/10 05:03:43;;;;;;;3.55;1.77;;;;;;;;;;5037530;28;20032;-39
2021/07/10 05:06:09;;;;;;;5.13;2.58;;;;;;;;;;5036807;28;20021;-41
2021/07/10 05:08:35;;;;;;;4.65;1.88;;;;;;;;;;5039794;28;20045;-39
2021/07/10 05:11:00;;;;;;;8.30;2.83;;;;;;;;;;5037523;28;20044;-40
2021/07/10 05:13:25;;;;;;;5.45;2.67;;;;;;;;;;5035726;28;20108;-39
2021/07/10 05:15:51;;;;;;;4.35;2.35;;;;;;;;;;5035182;28;20029;-40
2021/07/10 05:18:16;;;;;;;3.10;2.25;;;;;;;;;;5033784;28;20033;-42
2021/07/10 05:20:41;;;;;;;5.30;2.70;;;;;;;;;;5040306;28;20028;-39
2021/07/10 05:23:07;;;;;;;4.72;3.00;;;;;;;;;;5037125;28;20030;-40
2021/07/10 05:25:32;;;;;;;2.25;1.70;;;;;;;;;;5033506;28;20155;-41
2021/07/10 05:27:57;;;;;;;5.65;2.13;;;;;;;;;;5031487;28;20021;-43
2021/07/10 05:30:23;;;;;;;5.03;2.28;;;;;;;;;;5032582;28;20555;-40
2021/07/10 05:32:48;;;;;;;6.75;3.63;;;;;;;;;;5037362;28;20476;-39
2021/07/10 05:35:16;;;;;;;4.45;2.85;;;;;;;;;;5034527;28;20018;-40
2021/07/10 05:37:41;;;;;;;3.90;1.92;;;;;;;;;;5037674;28;20025;-40
2021/07/10 05:40:07;;;;;;;2.20;1.67;;;;;;;;;;5034355;28;20392;-39
2021/07/10 05:42:32;;;;;;;6.90;5.85;;;;;;;;;;5029311;28;20488;-40
2021/07/10 05:44:58;;;;;;;2.88;1.80;;;;;;;;;;5035499;28;20022;-44
2021/07/10 05:47:23;;;;;;;2.22;1.90;;;;;;;;;;5035573;28;20014;-42
2021/07/10 05:49:48;;;;;;;4.50;3.28;;;;;;;;;;5033013;28;20430;-40
2021/07/10 05:52:14;;;;;;;3.17;2.58;;;;;;;;;;5037390;28;20426;-43
2021/07/10 05:54:39;;;;;;;9.60;2.55;;;;;;;;;;5037571;28;20448;-40
2021/07/10 05:57:05;;;;;;;4.07;2.63;;;;;;;;;;5034282;28;20009;-40
2021/07/10 05:59:30;;;;;;;3.55;2.17;;;;;;;;;;5035105;28;20117;-40
2021/07/10 06:01:55;;;;;;;9.07;2.63;;;;;;;;;;5035067;28;20100;-41
2021/07/10 06:04:20;;;;;;;13.07;2.08;;;;;;;;;;5035516;28;20476;-41
2021/07/10 06:06:46;;;;;;;7.72;2.97;;;;;;;;;;5037734;28;20079;-40
2021/07/10 06:09:11;;;;;;;5.55;2.97;;;;;;;;;;5041940;28;20033;-40
2021/07/10 06:11:36;;;;;;;22.35;20.10;;;;;;;;;;5035047;28;20575;-40
2021/07/10 06:14:07;;;;;;;19.23;15.75;;;;;;;;;;5031139;28;20021;-39
2021/07/10 06:16:33;;;;;;;8.00;6.68;;;;;;;;;;5028510;28;20132;-41
2021/07/10 06:18:58;;;;;;;9.57;5.05;;;;;;;;;;5035238;28;20104;-42
2021/07/10 06:21:23;;;;;;;7.72;5.32;;;;;;;;;;5030923;28;20033;-43
2021/07/10 06:23:49;;;;;;;14.73;11.52;;;;;;;;;;5036036;28;20087;-40
2021/07/10 06:26:14;;;;;;;24.95;19.98;;;;;;;;;;5039496;28;20026;-41
2021/07/10 06:28:40;;;;;;;28.00;22.50;;;;;;;;;;5035038;28;20106;-40
2021/07/10 06:31:05;;;;;;;25.50;15.98;;;;;;;;;;5033836;28;20614;-40
2021/07/10 06:33:30;;;;;;;31.30;14.15;;;;;;;;;;5038690;28;20059;-40
2021/07/10 06:35:55;;;;;;;15.88;8.57;;;;;;;;;;5036206;28;20112;-39
2021/07/10 06:38:21;;;;;;;12.30;8.55;;;;;;;;;;5036253;28;20534;-40
2021/07/10 06:40:46;;;;;;;12.13;9.05;;;;;;;;;;5036699;28;20017;-39
2021/07/10 06:43:11;;;;;;;9.98;7.95;;;;;;;;;;5034155;28;20024;-40
2021/07/10 06:45:37;;;;;;;9.88;7.20;;;;;;;;;;5028789;28;20381;-40
2021/07/10 06:48:02;;;;;;;6.78;6.00;;;;;;;;;;5035449;28;20025;-41
2021/07/10 06:50:29;;;;;;;4.20;3.42;;;;;;;;;;5032046;28;20493;-40
2021/07/10 06:52:54;;;;;;;6.82;4.05;;;;;;;;;;5031742;28;20020;-43
2021/07/10 06:55:19;;;;;;;6.00;3.63;;;;;;;;;;5036329;28;20033;-42
2021/07/10 06:57:45;;;;;;;5.55;3.35;;;;;;;;;;5036653;28;20017;-44
2021/07/10 07:00:12;;;;;;;3.72;2.97;;;;;;;;;;5032069;28;20045;-44
2021/07/10 07:02:37;;;;;;;3.47;2.00;;;;;;;;;;5025237;28;20088;-43
2021/07/10 07:05:03;;;;;;;5.60;2.30;;;;;;;;;;5028462;28;20017;-45
2021/07/10 07:07:28;;;;;;;6.97;2.53;;;;;;;;;;5030082;28;20045;-44
2021/07/10 07:09:54;;;;;;;3.15;1.65;;;;;;;;;;5034180;28;20021;-44
2021/07/10 07:12:19;;;;;;;7.50;2.88;;;;;;;;;;5033999;28;20060;-45
2021/07/10 07:14:44;;;;;;;3.40;2.03;;;;;;;;;;5034924;28;20040;-44
2021/07/10 07:17:10;;;;;;;2.90;1.58;;;;;;;;;;5033849;28;20025;-43
2021/07/10 07:19:35;;;;;;;3.45;2.70;;;;;;;;;;5037606;28;20017;-43
2021/07/10 07:22:00;;;;;;;5.65;2.75;;;;;;;;;;5037329;28;20017;-44
2021/07/10 07:24:26;;;;;;;6.03;3.45;;;;;;;;;;5034678;28;20033;-43
2021/07/10 07:26:51;;;;;;;4.45;3.53;;;;;;;;;;5034657;28;20030;-43
2021/07/10 07:29:17;;;;;;;19.58;12.57;;;;;;;;;;5033148;28;20028;-45
2021/07/10 07:31:43;;;;;;;18.23;14.75;;;;;;;;;;5035736;28;20108;-43
2021/07/10 07:34:08;;;;;;;17.13;12.88;;;;;;;;;;5027806;28;20025;-44
2021/07/10 07:36:34;;;;;;;9.50;6.78;;;;;;;;;;5032028;28;20022;-43
2021/07/10 07:38:59;;;;;;;14.20;6.43;;;;;;;;;;5034224;28;20100;-43
2021/07/10 07:41:25;;;;;;;12.73;8.05;;;;;;;;;;5034200;28;20010;-45
2021/07/10 07:43:50;;;;;;;12.40;8.60;;;;;;;;;;5035733;28;20030;-43
2021/07/10 07:46:15;;;;;;;13.23;9.65;;;;;;;;;;5033712;28;20029;-43
2021/07/10 07:48:43;;;;;;;8.18;4.38;;;;;;;;;;5031214;28;20048;-43
2021/07/10 07:51:09;;;;;;;6.60;3.10;;;;;;;;;;5030474;28;20118;-43
2021/07/10 07:53:34;;;;;;;4.05;2.40;;;;;;;;;;5031649;28;20624;-43
2021/07/10 07:56:00;;;;;;;6.15;2.50;;;;;;;;;;5027644;28;20029;-46
2021/07/10 07:58:26;;;;;;;9.48;2.25;;;;;;;;;;5037084;28;20036;-44
2021/07/10 08:00:51;;;;;;;1.85;1.45;;;;;;;;;;5034211;28;20480;-43
2021/07/10 08:03:17;;;;;;;1.95;1.33;;;;;;;;;;5039509;28;20078;-44
2021/07/10 08:05:42;;;;;;;8.13;3.25;;;;;;;;;;5050515;28;20484;-48
2021/07/10 08:08:07;;;;;;;3.50;1.73;;;;;;;;;;5034505;28;20037;-44
2021/07/10 08:10:33;;;;;;;2.03;1.38;;;;;;;;;;5029897;28;20029;-43
2021/07/10 08:12:59;;;;;;;2.33;1.35;;;;;;;;;;5033067;28;20017;-47
2021/07/10 08:15:24;;;;;;;2.90;1.95;;;;;;;;;;5031264;28;20091;-43
2021/07/10 08:17:50;;;;;;;5.97;2.53;;;;;;;;;;5032713;28;20116;-43
2021/07/10 08:20:16;;;;;;;3.97;2.15;;;;;;;;;;5033168;28;20024;-47
2021/07/10 08:22:42;;;;;;;5.57;2.05;;;;;;;;;;5034286;28;20419;-44
2021/07/10 08:25:08;;;;;;;5.50;2.10;;;;;;;;;;5035401;28;20024;-44
2021/07/10 08:27:33;;;;;;;4.78;1.13;;;;;;;;;;5032210;28;20611;-44
2021/07/10 08:29:58;;;;;;;3.50;1.98;;;;;;;;;;5033070;28;20018;-44
2021/07/10 08:32:24;;;;;;;2.90;1.65;;;;;;;;;;5038700;28;20074;-47
2021/07/10 08:34:50;;;;;;;3.25;1.85;;;;;;;;;;5034257;28;20056;-45
2021/07/10 08:37:15;;;;;;;2.60;1.65;;;;;;;;;;5035831;28;20024;-43
2021/07/10 08:39:42;;;;;;;3.50;1.73;;;;;;;;;;5031220;28;20546;-44
2021/07/10 08:42:07;;;;;;;3.15;1.77;;;;;;;;;;5031706;28;20078;-45
2021/07/10 08:44:34;;;;;;;11.68;4.55;;;;;;;;;;5034754;28;20124;-43
2021/07/10 08:47:00;;;;;;;4.55;2.33;;;;;;;;;;5030642;28;20120;-46
2021/07/10 08:49:25;;;;;;;2.33;1.83;;;;;;;;;;5030959;28;20548;-44
2021/07/10 08:51:50;;;;;;;1.08;0.90;;;;;;;;;;5032981;28;20021;-43
2021/07/10 08:54:16;;;;;;;4.43;1.63;;;;;;;;;;5031513;28;20802;-44
2021/07/10 08:56:42;;;;;;;1.63;1.00;;;;;;;;;;5029280;28;20028;-44
2021/07/10 08:59:08;;;;;;;1.67;1.02;;;;;;;;;;5028982;28;20376;-43
2021/07/10 09:01:34;;;;;;;3.60;1.52;;;;;;;;;;5029604;28;20049;-45
2021/07/10 09:03:59;;;;;;;3.65;1.50;;;;;;;;;;5029246;28;20115;-45
2021/07/10 09:06:24;;;;;;;2.28;2.08;;;;;;;;;;5033833;28;20484;-43
2021/07/10 09:08:56;;;;;;;1.05;0.85;;;;;;;;;;5034989;28;20053;-44
2021/07/10 09:11:22;;;;;;;3.40;2.50;;;;;;;;;;5036838;28;20089;-43
2021/07/10 09:13:52;;;;;;;4.47;2.08;;;;;;;;;;5027557;28;20156;-43
2021/07/10 09:16:18;;;;;;;9.07;2.70;;;;;;;;;;5031502;28;20021;-44
2021/07/10 09:18:47;;;;;;;7.63;2.50;;;;;;;;;;5032066;28;20032;-43
2021/07/10 09:21:31;;;;;;;2.92;1.83;;;;;;;;;;5027885;28;20028;-44
2021/07/10 09:23:56;;;;;;;2.53;1.55;;;;;;;;;;5031304;28;20108;-44
2021/07/10 09:26:23;;;;;;;3.72;1.10;;;;;;;;;;5036845;28;20117;-43
2021/07/10 09:28:59;;;;;;;1.80;0.93;;;;;;;;;;5031364;28;20108;-45
2021/07/10 09:31:29;;;;;;;4.68;1.55;;;;;;;;;;5031340;28;20036;-43
2021/07/10 09:33:55;;;;;;;5.22;1.58;;;;;;;;;;5030495;28;20440;-43
2021/07/10 09:36:21;;;;;;;2.83;1.42;;;;;;;;;;5030004;28;20116;-43
2021/07/10 09:38:52;;;;;;;2.55;1.88;;;;;;;;;;5030844;28;20136;-45
2021/07/10 09:41:22;;;;;;;3.15;1.40;;;;;;;;;;5042803;28;20043;-44
2021/07/10 09:43:48;;;;;;;;;;;;;;;;;;5038755;28;20032;-45
2021/07/10 09:46:23;;;;;;;2.30;0.93;;;;;;;;;;5035901;28;20375;-43
2021/07/10 09:48:48;;;;;;;4.88;1.98;;;;;;;;;;5032876;28;20041;-47
2021/07/10 09:51:17;;;;;;;2.45;1.15;;;;;;;;;;5035897;28;20026;-46
2021/07/10 09:53:56;;;;;;;1.23;0.93;;;;;;;;;;5030178;28;20032;-42
2021/07/10 09:56:21;;;;;;;5.00;1.98;;;;;;;;;;5047971;28;20024;-44
2021/07/10 09:58:46;;;;;;;1.73;1.05;;;;;;;;;;5033331;28;20025;-48
2021/07/10 10:01:30;;;;;;;3.28;1.35;;;;;;;;;;5049103;28;20064;-43
2021/07/10 10:03:56;;;;;;;2.67;0.98;;;;;;;;;;5033791;28;20477;-45
2021/07/10 10:06:34;;;;;;;2.22;1.23;;;;;;;;;;5042446;28;20035;-43
2021/07/10 10:09:00;;;;;;;5.57;1.45;;;;;;;;;;5036071;28;20041;-42
2021/07/10 10:11:44;;;;;;;2.15;1.42;;;;;;;;;;5039194;28;20033;-44
2021/07/10 10:14:10;;;;;;;4.63;0.80;;;;;;;;;;5038892;28;20056;-44
2021/07/10 10:16:35;;;;;;;1.45;0.73;;;;;;;;;;5035779;28;20056;-43
2021/07/10 10:19:01;;;;;;;4.72;1.77;;;;;;;;;;5034743;28;20029;-42
2021/07/10 10:21:26;;;;;;;3.92;1.48;;;;;;;;;;5030986;28;20033;-41
2021/07/10 10:23:52;;;;;;;1.40;0.90;;;;;;;;;;5034645;28;20025;-41
2021/07/10 10:26:17;;;;;;;1.38;1.10;;;;;;;;;;5036595;28;20551;-41
2021/07/10 10:28:43;;;;;;;1.73;0.88;;;;;;;;;;5035356;28;20026;-41
2021/07/10 10:31:08;;;;;;;7.40;0.68;;;;;;;;;;5037742;28;20049;-43
2021/07/10 10:33:34;;;;;;;3.28;1.50;;;;;;;;;;5034433;28;20021;-43
2021/07/10 10:36:00;;;;;;;2.80;1.40;;;;;;;;;;5035104;28;20047;-46
2021/07/10 10:38:25;;;;;;;1.77;1.10;;;;;;;;;;5030855;28;20473;-43
2021/07/10 10:40:52;;;;;;;5.63;1.52;;;;;;;;;;5038009;28;20036;-44
2021/07/10 10:43:19;;;;;;;2.85;0.93;;;;;;;;;;5035409;28;20025;-45
2021/07/10 10:45:45;;;;;;;2.28;1.00;;;;;;;;;;5036144;28;20065;-43
2021/07/10 10:48:10;;;;;;;2.55;1.25;;;;;;;;;;5037314;28;20033;-42
2021/07/10 10:50:37;;;;;;;2.33;1.20;;;;;;;;;;5037175;28;20024;-43
2021/07/10 10:53:04;;;;;;;2.85;1.48;;;;;;;;;;5034643;28;20024;-43
2021/07/10 10:55:29;;;;;;;6.78;1.40;;;;;;;;;;5035922;28;20033;-45
2021/07/10 10:57:58;;;;;;;2.75;1.20;;;;;;;;;;5034407;28;20021;-44
2021/07/10 11:00:24;;;;;;;1.17;0.85;;;;;;;;;;5030531;28;20021;-44
2021/07/10 11:02:49;;;;;;;2.75;0.73;;;;;;;;;;5034972;28;20070;-42
2021/07/10 11:05:15;;;;;;;1.75;1.40;;;;;;;;;;5034363;28;20468;-43
2021/07/10 11:07:40;;;;;;;1.67;1.27;;;;;;;;;;5030247;28;20045;-42
2021/07/10 11:10:06;;;;;;;1.92;1.08;;;;;;;;;;5032260;28;20025;-43
2021/07/10 11:12:56;;;;;;;4.95;1.10;;;;;;;;;;5032675;28;20021;-44
2021/07/10 11:15:24;;;;;;;2.95;1.10;;;;;;;;;;5034365;28;20392;-42
2021/07/10 11:17:49;;;;;;;0.70;0.60;;;;;;;;;;5036555;28;20049;-45
2021/07/10 11:20:36;;;;;;;1.38;0.88;;;;;;;;;;5032124;28;20017;-44
2021/07/10 11:23:01;;;;;;;1.20;0.93;;;;;;;;;;5033534;28;20017;-44
2021/07/10 11:25:45;;;;;;;1.67;0.90;;;;;;;;;;5032944;28;20396;-44
2021/07/10 11:28:17;;;;;;;2.58;1.25;;;;;;;;;;5029834;28;20056;-44
2021/07/10 11:30:46;;;;;;;3.63;2.05;;;;;;;;;;5034479;28;20081;-45
2021/07/10 11:33:12;;;;;;;0.90;0.68;;;;;;;;;;5031018;28;20028;-44
2021/07/10 11:35:38;;;;;;;1.23;0.60;;;;;;;;;;5033475;28;20021;-43
2021/07/10 11:38:04;;;;;;;2.13;1.17;;;;;;;;;;5031362;28;20053;-46
2021/07/10 11:40:39;;;;;;;3.42;1.33;;;;;;;;;;5032606;28;20068;-44
2021/07/10 11:43:09;;;;;;;2.58;1.30;;;;;;;;;;5034319;28;20047;-45
2021/07/10 11:45:36;;;;;;;3.15;1.10;;;;;;;;;;5030886;28;20025;-44
2021/07/10 11:48:18;;;;;;;6.20;1.55;;;;;;;;;;5033561;28;20035;-45
2021/07/10 11:50:43;;;;;;;1.98;0.88;;;;;;;;;;5033113;28;20523;-45
2021/07/10 11:53:10;;;;;;;4.70;1.35;;;;;;;;;;5038504;28;20057;-43
2021/07/10 11:55:36;;;;;;;1.35;0.73;;;;;;;;;;5032116;28;20495;-45
2021/07/10 11:58:06;;;;;;;7.53;1.63;;;;;;;;;;5034390;28;20569;-45
2021/07/10 12:00:31;;;;;;;1.93;1.47;;;;;;;;;;5032561;28;20021;-47
2021/07/10 12:02:57;;;;;;;2.58;1.20;;;;;;;;;;5036932;28;20254;-46
2021/07/10 12:05:23;;;;;;;2.17;0.70;;;;;;;;;;5027683;28;20025;-42
2021/07/10 12:07:48;;;;;;;3.47;0.63;;;;;;;;;;5031969;28;20045;-47
2021/07/10 12:10:17;;;;;;;2.63;1.20;;;;;;;;;;5032110;28;20067;-45
2021/07/10 12:12:54;;;;;;;2.28;1.42;;;;;;;;;;5037494;28;20250;-44
2021/07/10 12:15:22;;;;;;;1.17;0.90;;;;;;;;;;5031010;28;20059;-43
2021/07/10 12:17:49;;;;;;;3.50;1.05;;;;;;;;;;5031828;28;20341;-44
2021/07/10 12:20:15;;;;;;;3.45;1.58;;;;;;;;;;5035230;28;20013;-44
2021/07/10 12:22:47;;;;;;;4.68;2.22;;;;;;;;;;5035805;28;20033;-46
2021/07/10 12:25:13;;;;;;;4.70;0.77;;;;;;;;;;5037205;28;20052;-44
2021/07/10 12:27:38;;;;;;;3.20;1.27;;;;;;;;;;5035194;28;20024;-44
2021/07/10 12:30:03;;;;;;;1.15;0.88;;;;;;;;;;5041205;28;20415;-43
2021/07/10 12:32:29;;;;;;;2.40;1.30;;;;;;;;;;5029934;28;20021;-44
2021/07/10 12:34:54;;;;;;;3.65;1.20;;;;;;;;;;5023603;28;20654;-45
2021/07/10 12:37:22;;;;;;;0.77;0.63;;;;;;;;;;5031984;28;20024;-45
2021/07/10 12:39:48;;;;;;;2.10;0.98;;;;;;;;;;5031671;28;20484;-42
2021/07/10 12:42:13;;;;;;;1.40;1.30;;;;;;;;;;5036497;28;20021;-43
2021/07/10 12:44:40;;;;;;;2.83;0.90;;;;;;;;;;5033875;28;20480;-43
2021/07/10 12:47:16;;;;;;;1.02;0.65;;;;;;;;;;5032763;28;20563;-42
2021/07/10 12:49:46;;;;;;;2.47;1.45;;;;;;;;;;5036005;28;20052;-44
2021/07/10 12:52:31;;;;;;;2.53;1.30;;;;;;;;;;5028853;28;20558;-43
2021/07/10 12:55:10;;;;;;;2.25;0.73;;;;;;;;;;5035395;28;20079;-43
2021/07/10 12:57:35;;;;;;;3.95;0.93;;;;;;;;;;5034968;28;20101;-43
2021/07/10 13:00:18;;;;;;;0.95;0.65;;;;;;;;;;5035752;28;20111;-44
2021/07/10 13:02:45;;;;;;;1.90;1.20;;;;;;;;;;5032715;28;20017;-42
2021/07/10 13:05:15;;;;;;;1.25;0.73;;;;;;;;;;5034102;28;20031;-44
2021/07/10 13:07:40;;;;;;;2.28;1.25;;;;;;;;;;5035831;28;20143;-48
2021/07/10 13:10:07;;;;;;;8.27;1.00;;;;;;;;;;5029943;28;20489;-43
2021/07/10 13:13:02;;;;;;;2.13;1.00;;;;;;;;;;5031012;28;20014;-46
2021/07/10 13:15:29;;;;;;;3.45;1.88;;;;;;;;;;5034222;28;20443;-44
2021/07/10 13:18:04;;;;;;;3.42;1.90;;;;;;;;;;5039150;28;20017;-43
2021/07/10 13:20:30;;;;;;;4.78;1.02;;;;;;;;;;5032828;28;20027;-48
2021/07/10 13:22:56;;;;;;;3.53;1.73;;;;;;;;;;5035549;28;20053;-46
2021/07/10 13:25:21;;;;;;;1.33;1.23;;;;;;;;;;5033568;28;20060;-43
2021/07/10 13:27:47;;;;;;;2.10;1.40;;;;;;;;;;5037563;28;20101;-43
2021/07/10 13:30:13;;;;;;;3.22;1.83;;;;;;;;;;5038595;28;20017;-42
2021/07/10 13:32:38;;;;;;;1.30;0.80;;;;;;;;;;5036839;28;20017;-43
2021/07/10 13:35:07;;;;;;;2.03;1.08;;;;;;;;;;5036490;28;20013;-43
2021/07/10 13:37:36;;;;;;;3.25;1.38;;;;;;;;;;5035228;28;20021;-43
2021/07/10 13:40:17;;;;;;;8.07;1.85;;;;;;;;;;5039887;28;20228;-43
2021/07/10 13:42:56;;;;;;;1.25;0.63;;;;;;;;;;5037927;28;20017;-45
2021/07/10 13:45:22;;;;;;;1.27;0.90;;;;;;;;;;5033348;28;20024;-43
2021/07/10 13:47:47;;;;;;;2.83;0.85;;;;;;;;;;5039812;28;20376;-42
2021/07/10 13:50:13;;;;;;;1.80;1.05;;;;;;;;;;5038012;28;20025;-43
2021/07/10 13:52:41;;;;;;;4.47;1.30;;;;;;;;;;5039020;28;20451;-47
2021/07/10 13:55:06;;;;;;;2.92;1.23;;;;;;;;;;5034977;28;20040;-44
2021/07/10 13:57:41;;;;;;;1.05;0.55;;;;;;;;;;5032298;28;20017;-44
2021/07/10 14:00:08;;;;;;;1.98;1.45;;;;;;;;;;5035700;28;20029;-47
2021/07/10 14:02:36;;;;;;;1.80;0.88;;;;;;;;;;5037666;28;20025;-42
2021/07/10 14:05:01;;;;;;;5.90;1.30;;;;;;;;;;5036069;28;20041;-42
2021/07/10 14:07:26;;;;;;;2.33;1.10;;;;;;;;;;5033583;28;20045;-46
2021/07/10 14:09:52;;;;;;;1.48;0.90;;;;;;;;;;5034370;28;20040;-44
2021/07/10 14:12:17;;;;;;;0.75;0.45;;;;;;;;;;5032794;28;20112;-40
2021/07/10 14:14:42;;;;;;;3.05;1.77;;;;;;;;;;5031551;28;20048;-42
2021/07/10 14:17:08;;;;;;;1.55;0.80;;;;;;;;;;5032063;28;20421;-43
2021/07/10 14:19:33;;;;;;;2.50;0.93;;;;;;;;;;5038122;28;20021;-42
2021/07/10 14:21:59;;;;;;;1.15;0.75;;;;;;;;;;5036325;28;20100;-42
2021/07/10 14:24:24;;;;;;;1.10;0.93;;;;;;;;;;5039677;28;20435;-42
2021/07/10 14:26:50;;;;;;;1.92;1.10;;;;;;;;;;5036970;28;20441;-43
2021/07/10 14:29:15;;;;;;;2.13;1.40;;;;;;;;;;5033944;28;20029;-40
2021/07/10 14:31:40;;;;;;;1.77;1.10;;;;;;;;;;5037711;28;20051;-41
2021/07/10 14:34:06;;;;;;;1.50;1.02;;;;;;;;;;5030566;28;20489;-43
2021/07/10 14:36:31;;;;;;;1.73;0.98;;;;;;;;;;5037634;28;20013;-42
2021/07/10 14:38:56;;;;;;;2.08;0.88;;;;;;;;;;5031879;28;20036;-44